Terminal Aerodrome Forecast
Issued by NWS

Home | Current Version | Previous Version | Text Only | Print | Product List | Glossary On
Versions: 1 2 3 4 5 6 7 8 9 10 11 12 13 14
000
FTAK31 PANC 020256 AAA
TAFAEN
TAF AMD
PAEN 020256Z 0203/0224 08011KT P6SM VCSH SCT040 BKN070
     FM020600 VRB04KT P6SM SCT050 BKN080=

USA.gov is the U.S. government's official web portal to all federal, state and local government web resources and services.